sensor_id;sensor_type;location;lat;lon;timestamp;pressure;altitude;pressure_sealevel;temperature;humidity
50250;BME280;36133;42.522;27.456;2023-02-28T00:00:11;102206.84;;;11.74;60.22
50250;BME280;36133;42.522;27.456;2023-02-28T00:02:39;102189.88;;;10.84;61.90
50250;BME280;36133;42.522;27.456;2023-02-28T00:05:06;102220.09;;;11.59;61.34
50250;BME280;36133;42.522;27.456;2023-02-28T00:07:32;102086.28;;;10.13;62.75
50250;BME280;36133;42.522;27.456;2023-02-28T00:09:57;101965.78;;;9.58;62.03
50250;BME280;36133;42.522;27.456;2023-02-28T00:12:23;102123.53;;;10.37;62.38
50250;BME280;36133;42.522;27.456;2023-02-28T00:14:50;102267.88;;;11.33;62.64
50250;BME280;36133;42.522;27.456;2023-02-28T00:17:16;102260.75;;;11.50;62.05
50250;BME280;36133;42.522;27.456;2023-02-28T00:19:50;102151.09;;;10.76;61.55
50250;BME280;36133;42.522;27.456;2023-02-28T00:22:16;102234.91;;;11.11;61.34
50250;BME280;36133;42.522;27.456;2023-02-28T00:24:43;102281.47;;;11.59;61.13
50250;BME280;36133;42.522;27.456;2023-02-28T00:27:09;102141.84;;;10.61;61.01
50250;BME280;36133;42.522;27.456;2023-02-28T00:29:34;102222.44;;;10.38;63.33
50250;BME280;36133;42.522;27.456;2023-02-28T00:32:00;102105.25;;;10.31;61.56
50250;BME280;36133;42.522;27.456;2023-02-28T00:34:26;102296.84;;;11.58;61.26
50250;BME280;36133;42.522;27.456;2023-02-28T00:36:52;102278.22;;;11.02;61.95
50250;BME280;36133;42.522;27.456;2023-02-28T00:39:17;102304.50;;;12.24;59.93
50250;BME280;36133;42.522;27.456;2023-02-28T00:41:43;102071.00;;;9.39;63.34
50250;BME280;36133;42.522;27.456;2023-02-28T00:44:08;102284.41;;;10.94;62.23
50250;BME280;36133;42.522;27.456;2023-02-28T00:46:34;102074.84;;;10.01;61.41
50250;BME280;36133;42.522;27.456;2023-02-28T00:48:59;102309.59;;;11.48;60.96
50250;BME280;36133;42.522;27.456;2023-02-28T00:51:25;102243.56;;;11.15;60.56
50250;BME280;36133;42.522;27.456;2023-02-28T00:53:50;102296.47;;;11.18;61.79
50250;BME280;36133;42.522;27.456;2023-02-28T00:56:16;102205.22;;;10.66;61.50
50250;BME280;36133;42.522;27.456;2023-02-28T00:58:41;102208.50;;;11.05;61.46
50250;BME280;36133;42.522;27.456;2023-02-28T01:01:07;102234.16;;;10.56;63.53
50250;BME280;36133;42.522;27.456;2023-02-28T01:03:33;102062.50;;;9.98;62.11
50250;BME280;36133;42.522;27.456;2023-02-28T01:05:59;102222.53;;;10.09;64.16
50250;BME280;36133;42.522;27.456;2023-02-28T01:08:25;102221.34;;;10.31;63.35
50250;BME280;36133;42.522;27.456;2023-02-28T01:10:51;102325.22;;;10.64;64.39
50250;BME280;36133;42.522;27.456;2023-02-28T01:13:17;102076.66;;;9.83;61.89
50250;BME280;36133;42.522;27.456;2023-02-28T01:15:49;102261.72;;;10.77;62.51
50250;BME280;36133;42.522;27.456;2023-02-28T01:18:16;102317.06;;;11.01;62.94
50250;BME280;36133;42.522;27.456;2023-02-28T01:20:41;102061.25;;;9.65;62.89
50250;BME280;36133;42.522;27.456;2023-02-28T01:23:07;102278.31;;;11.10;62.23
50250;BME280;36133;42.522;27.456;2023-02-28T01:25:35;102283.97;;;11.34;62.40
50250;BME280;36133;42.522;27.456;2023-02-28T01:28:01;102307.91;;;11.47;61.71
50250;BME280;36133;42.522;27.456;2023-02-28T01:30:27;102273.28;;;12.12;59.59
50250;BME280;36133;42.522;27.456;2023-02-28T01:32:53;102073.16;;;9.73;62.80
50250;BME280;36133;42.522;27.456;2023-02-28T01:35:19;102332.72;;;11.78;62.13
50250;BME280;36133;42.522;27.456;2023-02-28T01:37:45;102265.44;;;11.39;61.38
50250;BME280;36133;42.522;27.456;2023-02-28T01:40:11;102265.66;;;11.28;62.33
50250;BME280;36133;42.522;27.456;2023-02-28T01:42:37;102308.78;;;11.65;61.50
50250;BME280;36133;42.522;27.456;2023-02-28T01:45:29;102317.34;;;11.61;61.64
50250;BME280;36133;42.522;27.456;2023-02-28T01:48:00;102289.59;;;11.23;61.98
50250;BME280;36133;42.522;27.456;2023-02-28T01:50:31;102319.66;;;11.91;60.06
50250;BME280;36133;42.522;27.456;2023-02-28T01:53:01;102278.09;;;11.21;61.44
50250;BME280;36133;42.522;27.456;2023-02-28T01:55:30;102355.88;;;12.16;60.31
50250;BME280;36133;42.522;27.456;2023-02-28T01:58:00;102345.09;;;11.27;62.56
50250;BME280;36133;42.522;27.456;2023-02-28T02:00:28;102328.38;;;11.32;62.10
50250;BME280;36133;42.522;27.456;2023-02-28T02:03:00;102113.63;;;9.63;63.18
50250;BME280;36133;42.522;27.456;2023-02-28T02:05:28;102243.63;;;11.05;61.77
50250;BME280;36133;42.522;27.456;2023-02-28T02:08:01;102284.56;;;11.10;62.08
50250;BME280;36133;42.522;27.456;2023-02-28T02:10:35;102342.50;;;11.08;63.55
50250;BME280;36133;42.522;27.456;2023-02-28T02:16:27;102182.38;;;9.96;64.18
50250;BME280;36133;42.522;27.456;2023-02-28T02:36:46;102343.97;;;11.20;63.01
50250;BME280;36133;42.522;27.456;2023-02-28T02:41:51;102210.69;;;10.19;63.10
50250;BME280;36133;42.522;27.456;2023-02-28T02:46:45;102299.19;;;10.90;62.88
50250;BME280;36133;42.522;27.456;2023-02-28T02:49:29;102353.84;;;10.84;63.24
50250;BME280;36133;42.522;27.456;2023-02-28T02:51:58;102327.91;;;10.64;63.96
50250;BME280;36133;42.522;27.456;2023-02-28T02:54:31;102158.09;;;9.49;63.79
50250;BME280;36133;42.522;27.456;2023-02-28T02:57:03;102194.38;;;10.11;63.03
50250;BME280;36133;42.522;27.456;2023-02-28T02:59:30;102282.50;;;10.77;64.00
50250;BME280;36133;42.522;27.456;2023-02-28T03:01:59;102157.06;;;10.07;63.31
50250;BME280;36133;42.522;27.456;2023-02-28T03:04:31;102211.94;;;10.35;63.74
50250;BME280;36133;42.522;27.456;2023-02-28T03:06:58;102196.78;;;9.77;64.88
50250;BME280;36133;42.522;27.456;2023-02-28T03:09:25;102292.78;;;10.36;65.14
50250;BME280;36133;42.522;27.456;2023-02-28T03:11:53;102253.03;;;9.72;65.88
50250;BME280;36133;42.522;27.456;2023-02-28T03:25:28;102350.84;;;10.60;63.70
50250;BME280;36133;42.522;27.456;2023-02-28T03:28:08;102358.75;;;10.71;63.81
50250;BME280;36133;42.522;27.456;2023-02-28T03:30:46;102239.25;;;9.65;64.38
50250;BME280;36133;42.522;27.456;2023-02-28T03:33:22;102377.31;;;10.83;63.77
50250;BME280;36133;42.522;27.456;2023-02-28T03:35:55;102361.84;;;10.76;64.01
50250;BME280;36133;42.522;27.456;2023-02-28T03:38:28;102346.13;;;10.89;63.59
50250;BME280;36133;42.522;27.456;2023-02-28T03:41:01;102314.09;;;10.30;64.62
50250;BME280;36133;42.522;27.456;2023-02-28T03:43:31;102359.97;;;10.49;65.18
50250;BME280;36133;42.522;27.456;2023-02-28T03:46:02;102120.25;;;9.31;64.35
50250;BME280;36133;42.522;27.456;2023-02-28T03:48:45;102260.22;;;9.91;64.35
50250;BME280;36133;42.522;27.456;2023-02-28T03:51:16;102323.34;;;10.17;65.19
50250;BME280;36133;42.522;27.456;2023-02-28T03:53:47;102306.06;;;10.57;63.91
50250;BME280;36133;42.522;27.456;2023-02-28T03:56:24;102335.13;;;10.73;63.94
50250;BME280;36133;42.522;27.456;2023-02-28T03:59:09;102324.56;;;10.52;64.27
50250;BME280;36133;42.522;27.456;2023-02-28T04:01:48;102152.78;;;8.91;65.13
50250;BME280;36133;42.522;27.456;2023-02-28T04:04:14;102353.31;;;10.80;63.40
50250;BME280;36133;42.522;27.456;2023-02-28T04:06:41;102210.22;;;9.21;64.79
50250;BME280;36133;42.522;27.456;2023-02-28T04:09:08;102342.69;;;10.03;64.75
50250;BME280;36133;42.522;27.456;2023-02-28T04:14:04;102189.59;;;9.49;63.19
50250;BME280;36133;42.522;27.456;2023-02-28T04:16:31;102198.13;;;8.96;65.01
50250;BME280;36133;42.522;27.456;2023-02-28T04:18:57;102306.69;;;9.65;64.96
50250;BME280;36133;42.522;27.456;2023-02-28T04:21:29;102367.69;;;10.24;64.31
50250;BME280;36133;42.522;27.456;2023-02-28T04:23:55;102136.69;;;9.38;61.96
50250;BME280;36133;42.522;27.456;2023-02-28T04:26:21;102275.00;;;9.87;62.63
50250;BME280;36133;42.522;27.456;2023-02-28T04:28:46;102397.25;;;10.26;64.43
50250;BME280;36133;42.522;27.456;2023-02-28T04:31:12;102276.69;;;9.88;63.52
50250;BME280;36133;42.522;27.456;2023-02-28T04:33:37;102393.81;;;10.43;64.36
50250;BME280;36133;42.522;27.456;2023-02-28T04:36:06;102385.03;;;10.32;64.37
50250;BME280;36133;42.522;27.456;2023-02-28T04:38:34;102216.44;;;9.31;64.20
50250;BME280;36133;42.522;27.456;2023-02-28T04:41:00;102070.22;;;8.32;64.47
50250;BME280;36133;42.522;27.456;2023-02-28T04:43:27;102371.72;;;9.82;65.68
50250;BME280;36133;42.522;27.456;2023-02-28T04:45:54;102331.06;;;9.45;66.92
50250;BME280;36133;42.522;27.456;2023-02-28T04:48:28;102381.06;;;10.07;65.20
50250;BME280;36133;42.522;27.456;2023-02-28T04:50:54;102348.66;;;10.26;64.14
50250;BME280;36133;42.522;27.456;2023-02-28T04:53:20;102162.63;;;8.42;65.96
50250;BME280;36133;42.522;27.456;2023-02-28T04:55:46;102385.03;;;10.32;64.28
50250;BME280;36133;42.522;27.456;2023-02-28T04:58:13;102391.84;;;9.68;65.80
50250;BME280;36133;42.522;27.456;2023-02-28T05:00:38;102237.44;;;9.18;65.33
50250;BME280;36133;42.522;27.456;2023-02-28T05:03:04;102367.72;;;9.86;64.97
50250;BME280;36133;42.522;27.456;2023-02-28T05:05:29;102122.28;;;8.52;64.90
50250;BME280;36133;42.522;27.456;2023-02-28T05:07:55;102137.28;;;8.45;65.13
50250;BME280;36133;42.522;27.456;2023-02-28T05:10:24;101927.47;;;7.16;65.08
50250;BME280;36133;42.522;27.456;2023-02-28T05:12:50;102145.00;;;8.29;65.25
50250;BME280;36133;42.522;27.456;2023-02-28T05:15:16;102330.13;;;9.46;65.76
50250;BME280;36133;42.522;27.456;2023-02-28T05:17:42;102260.13;;;9.15;65.32
50250;BME280;36133;42.522;27.456;2023-02-28T05:20:09;102241.50;;;8.83;65.34
50250;BME280;36133;42.522;27.456;2023-02-28T05:22:44;102413.97;;;10.59;63.55
50250;BME280;36133;42.522;27.456;2023-02-28T05:25:19;102334.91;;;9.81;64.22
50250;BME280;36133;42.522;27.456;2023-02-28T05:27:45;102448.09;;;10.40;64.64
50250;BME280;36133;42.522;27.456;2023-02-28T05:30:10;102283.69;;;9.71;63.15
50250;BME280;36133;42.522;27.456;2023-02-28T05:32:40;102417.38;;;10.51;63.20
50250;BME280;36133;42.522;27.456;2023-02-28T05:35:12;102437.56;;;10.56;62.56
50250;BME280;36133;42.522;27.456;2023-02-28T05:37:38;102412.28;;;10.48;62.75
50250;BME280;36133;42.522;27.456;2023-02-28T05:40:05;102313.88;;;10.23;61.29
50250;BME280;36133;42.522;27.456;2023-02-28T05:42:32;102405.97;;;11.04;60.65
50250;BME280;36133;42.522;27.456;2023-02-28T05:44:57;102466.69;;;10.72;62.40
50250;BME280;36133;42.522;27.456;2023-02-28T05:47:23;102357.06;;;9.46;64.05
50250;BME280;36133;42.522;27.456;2023-02-28T05:49:49;102426.34;;;10.51;62.76
50250;BME280;36133;42.522;27.456;2023-02-28T05:52:14;102296.16;;;9.43;63.83
50250;BME280;36133;42.522;27.456;2023-02-28T05:54:40;102389.56;;;10.02;63.51
50250;BME280;36133;42.522;27.456;2023-02-28T05:57:07;102364.56;;;10.29;62.42
50250;BME280;36133;42.522;27.456;2023-02-28T05:59:32;102458.00;;;11.15;61.86
50250;BME280;36133;42.522;27.456;2023-02-28T06:01:58;102396.38;;;10.45;62.61
50250;BME280;36133;42.522;27.456;2023-02-28T06:04:24;102304.50;;;10.08;62.10
50250;BME280;36133;42.522;27.456;2023-02-28T06:06:50;102473.25;;;11.07;61.55
50250;BME280;36133;42.522;27.456;2023-02-28T06:09:16;102408.94;;;11.56;59.28
50250;BME280;36133;42.522;27.456;2023-02-28T06:11:43;102327.53;;;10.86;59.86
50250;BME280;36133;42.522;27.456;2023-02-28T06:14:15;102335.31;;;10.62;60.39
50250;BME280;36133;42.522;27.456;2023-02-28T06:16:41;102358.13;;;10.49;60.80
50250;BME280;36133;42.522;27.456;2023-02-28T06:19:08;102483.19;;;11.43;60.35
50250;BME280;36133;42.522;27.456;2023-02-28T06:21:34;102347.06;;;11.25;58.56
50250;BME280;36133;42.522;27.456;2023-02-28T06:23:59;102345.75;;;10.84;59.21
50250;BME280;36133;42.522;27.456;2023-02-28T06:26:25;102458.72;;;12.26;58.04
50250;BME280;36133;42.522;27.456;2023-02-28T06:28:51;102436.47;;;11.69;59.08
50250;BME280;36133;42.522;27.456;2023-02-28T06:31:17;102393.81;;;12.42;56.52
50250;BME280;36133;42.522;27.456;2023-02-28T06:33:45;101963.09;;;10.21;54.54
50250;BME280;36133;42.522;27.456;2023-02-28T06:36:11;102479.97;;;13.08;55.25
50250;BME280;36133;42.522;27.456;2023-02-28T06:38:38;102490.59;;;12.76;55.49
50250;BME280;36133;42.522;27.456;2023-02-28T06:41:05;102483.56;;;12.91;55.66
50250;BME280;36133;42.522;27.456;2023-02-28T06:43:34;102467.59;;;12.36;56.12
50250;BME280;36133;42.522;27.456;2023-02-28T06:46:02;102475.91;;;12.17;57.36
50250;BME280;36133;42.522;27.456;2023-02-28T06:48:28;102366.44;;;12.01;55.69
50250;BME280;36133;42.522;27.456;2023-02-28T06:51:12;102482.41;;;13.19;54.80
50250;BME280;36133;42.522;27.456;2023-02-28T06:53:38;102456.09;;;12.16;56.48
50250;BME280;36133;42.522;27.456;2023-02-28T06:56:10;102477.38;;;12.73;54.96
50250;BME280;36133;42.522;27.456;2023-02-28T06:58:37;102379.03;;;11.57;56.65
50250;BME280;36133;42.522;27.456;2023-02-28T07:01:03;102433.41;;;12.17;55.92
50250;BME280;36133;42.522;27.456;2023-02-28T07:03:29;102480.66;;;12.41;56.12
50250;BME280;36133;42.522;27.456;2023-02-28T07:05:55;102476.78;;;12.61;55.80
50250;BME280;36133;42.522;27.456;2023-02-28T07:08:22;102474.19;;;12.59;55.77
50250;BME280;36133;42.522;27.456;2023-02-28T07:10:51;102474.47;;;12.48;56.76
50250;BME280;36133;42.522;27.456;2023-02-28T07:13:17;102329.03;;;11.43;56.44
50250;BME280;36133;42.522;27.456;2023-02-28T07:15:42;102387.09;;;12.02;56.01
50250;BME280;36133;42.522;27.456;2023-02-28T07:18:08;102458.19;;;12.05;56.89
50250;BME280;36133;42.522;27.456;2023-02-28T07:20:33;102486.25;;;12.21;57.08
50250;BME280;36133;42.522;27.456;2023-02-28T07:22:59;102271.91;;;11.29;56.02
50250;BME280;36133;42.522;27.456;2023-02-28T07:25:26;102410.41;;;12.21;56.48
50250;BME280;36133;42.522;27.456;2023-02-28T07:27:53;102393.56;;;12.27;56.14
50250;BME280;36133;42.522;27.456;2023-02-28T07:30:18;102477.06;;;12.58;56.29
50250;BME280;36133;42.522;27.456;2023-02-28T07:32:44;102302.81;;;11.44;56.06
50250;BME280;36133;42.522;27.456;2023-02-28T07:35:10;102482.28;;;12.51;56.21
50250;BME280;36133;42.522;27.456;2023-02-28T07:37:36;102491.13;;;12.18;57.37
50250;BME280;36133;42.522;27.456;2023-02-28T07:40:08;102381.44;;;11.78;57.40
50250;BME280;36133;42.522;27.456;2023-02-28T07:42:35;102254.88;;;10.28;58.57
50250;BME280;36133;42.522;27.456;2023-02-28T07:45:01;102514.19;;;12.40;57.15
50250;BME280;36133;42.522;27.456;2023-02-28T07:47:28;102255.94;;;10.72;57.26
50250;BME280;36133;42.522;27.456;2023-02-28T07:49:54;102333.97;;;10.75;58.36
50250;BME280;36133;42.522;27.456;2023-02-28T07:52:19;102093.19;;;9.70;57.90
50250;BME280;36133;42.522;27.456;2023-02-28T07:54:45;102325.84;;;11.66;56.44
50250;BME280;36133;42.522;27.456;2023-02-28T07:57:10;102507.00;;;12.13;57.63
50250;BME280;36133;42.522;27.456;2023-02-28T07:59:36;102373.47;;;11.13;58.05
50250;BME280;36133;42.522;27.456;2023-02-28T08:02:02;102482.69;;;12.03;57.42
50250;BME280;36133;42.522;27.456;2023-02-28T08:04:27;102489.88;;;11.94;58.13
50250;BME280;36133;42.522;27.456;2023-02-28T08:06:56;102471.97;;;11.38;58.76
50250;BME280;36133;42.522;27.456;2023-02-28T08:09:22;102287.72;;;10.23;59.89
50250;BME280;36133;42.522;27.456;2023-02-28T08:11:47;102430.72;;;10.99;59.75
50250;BME280;36133;42.522;27.456;2023-02-28T08:14:13;102476.63;;;11.19;60.30
50250;BME280;36133;42.522;27.456;2023-02-28T08:16:38;102520.03;;;11.82;59.33
50250;BME280;36133;42.522;27.456;2023-02-28T08:19:04;102518.53;;;12.50;57.35
50250;BME280;36133;42.522;27.456;2023-02-28T08:21:30;102287.00;;;10.86;58.15
50250;BME280;36133;42.522;27.456;2023-02-28T08:23:55;102283.59;;;10.19;59.99
50250;BME280;36133;42.522;27.456;2023-02-28T08:26:22;102508.84;;;11.94;59.53
50250;BME280;36133;42.522;27.456;2023-02-28T08:28:48;102450.13;;;11.22;60.46
50250;BME280;36133;42.522;27.456;2023-02-28T08:31:15;102454.19;;;11.63;59.48
50250;BME280;36133;42.522;27.456;2023-02-28T08:33:41;102525.06;;;13.09;56.96
50250;BME280;36133;42.522;27.456;2023-02-28T08:36:08;102364.50;;;11.58;57.83
50250;BME280;36133;42.522;27.456;2023-02-28T08:38:35;102521.19;;;11.79;59.42
50250;BME280;36133;42.522;27.456;2023-02-28T08:41:04;102387.00;;;11.94;57.47
50250;BME280;36133;42.522;27.456;2023-02-28T08:43:33;102382.69;;;11.21;58.75
50250;BME280;36133;42.522;27.456;2023-02-28T08:45:58;102497.47;;;11.91;59.30
50250;BME280;36133;42.522;27.456;2023-02-28T08:48:25;102310.38;;;11.05;58.10
50250;BME280;36133;42.522;27.456;2023-02-28T08:50:59;102483.03;;;12.61;56.60
50250;BME280;36133;42.522;27.456;2023-02-28T08:53:25;102366.72;;;11.63;57.84
50250;BME280;36133;42.522;27.456;2023-02-28T08:55:58;102427.03;;;11.73;57.98
50250;BME280;36133;42.522;27.456;2023-02-28T08:58:24;102486.56;;;11.55;59.44
50250;BME280;36133;42.522;27.456;2023-02-28T09:00:54;102513.56;;;11.92;58.84
50250;BME280;36133;42.522;27.456;2023-02-28T09:03:21;102237.69;;;10.56;58.41
50250;BME280;36133;42.522;27.456;2023-02-28T09:05:55;102267.44;;;10.74;58.66
50250;BME280;36133;42.522;27.456;2023-02-28T09:08:21;102302.00;;;10.98;58.40
50250;BME280;36133;42.522;27.456;2023-02-28T09:10:46;102499.88;;;12.29;58.53
50250;BME280;36133;42.522;27.456;2023-02-28T09:13:12;102501.81;;;11.74;60.03
50250;BME280;36133;42.522;27.456;2023-02-28T09:15:38;102291.38;;;10.69;58.97
50250;BME280;36133;42.522;27.456;2023-02-28T09:18:04;102501.88;;;11.64;60.77
50250;BME280;36133;42.522;27.456;2023-02-28T09:20:30;102346.41;;;10.68;60.42
50250;BME280;36133;42.522;27.456;2023-02-28T09:22:55;102469.66;;;11.43;60.74
50250;BME280;36133;42.522;27.456;2023-02-28T09:25:21;102159.69;;;10.16;59.54
50250;BME280;36133;42.522;27.456;2023-02-28T09:27:46;101945.69;;;8.59;60.05
50250;BME280;36133;42.522;27.456;2023-02-28T09:30:13;102363.78;;;11.38;59.59
50250;BME280;36133;42.522;27.456;2023-02-28T09:32:38;102332.00;;;11.05;59.61
50250;BME280;36133;42.522;27.456;2023-02-28T09:35:05;102434.50;;;11.43;60.02
50250;BME280;36133;42.522;27.456;2023-02-28T09:37:30;102203.88;;;10.52;59.04
50250;BME280;36133;42.522;27.456;2023-02-28T09:39:57;102429.53;;;11.11;60.68
50250;BME280;36133;42.522;27.456;2023-02-28T09:42:30;102517.06;;;12.38;59.46
50250;BME280;36133;42.522;27.456;2023-02-28T09:44:58;102073.19;;;9.06;60.72
50250;BME280;36133;42.522;27.456;2023-02-28T09:49:51;102530.03;;;12.52;58.46
50250;BME280;36133;42.522;27.456;2023-02-28T09:52:19;102178.69;;;10.34;58.41
50250;BME280;36133;42.522;27.456;2023-02-28T09:54:47;102491.09;;;12.53;58.35
50250;BME280;36133;42.522;27.456;2023-02-28T10:00:26;102500.00;;;12.46;57.40
50250;BME280;36133;42.522;27.456;2023-02-28T10:03:30;102411.88;;;11.62;57.54
50250;BME280;36133;42.522;27.456;2023-02-28T10:11:27;102457.41;;;12.56;56.55
50250;BME280;36133;42.522;27.456;2023-02-28T10:16:35;102479.06;;;11.67;59.59
50250;BME280;36133;42.522;27.456;2023-02-28T10:21:38;102472.91;;;12.46;57.50
50250;BME280;36133;42.522;27.456;2023-02-28T10:26:43;102457.06;;;12.33;57.29
50250;BME280;36133;42.522;27.456;2023-02-28T10:29:16;102487.91;;;12.84;57.08
50250;BME280;36133;42.522;27.456;2023-02-28T10:31:42;102501.78;;;12.55;57.31
50250;BME280;36133;42.522;27.456;2023-02-28T10:34:11;102347.72;;;11.55;58.12
50250;BME280;36133;42.522;27.456;2023-02-28T10:36:38;102265.00;;;10.99;58.36
50250;BME280;36133;42.522;27.456;2023-02-28T10:42:27;102454.75;;;12.38;58.27
50250;BME280;36133;42.522;27.456;2023-02-28T10:45:13;102433.56;;;12.16;57.95
50250;BME280;36133;42.522;27.456;2023-02-28T11:03:57;102298.09;;;11.46;58.31
50250;BME280;36133;42.522;27.456;2023-02-28T11:06:29;102444.03;;;11.93;59.48
50250;BME280;36133;42.522;27.456;2023-02-28T11:08:58;102249.78;;;10.80;59.37
50250;BME280;36133;42.522;27.456;2023-02-28T11:11:41;102398.97;;;11.74;59.37
50250;BME280;36133;42.522;27.456;2023-02-28T11:14:21;102322.53;;;11.54;58.39
50250;BME280;36133;42.522;27.456;2023-02-28T11:16:48;102445.25;;;12.16;58.68
50250;BME280;36133;42.522;27.456;2023-02-28T11:19:33;102202.75;;;10.55;59.53
50250;BME280;36133;42.522;27.456;2023-02-28T11:22:02;102399.66;;;11.58;59.86
50250;BME280;36133;42.522;27.456;2023-02-28T11:24:37;102400.13;;;11.26;60.53
50250;BME280;36133;42.522;27.456;2023-02-28T11:27:06;102427.84;;;11.83;59.68
50250;BME280;36133;42.522;27.456;2023-02-28T11:29:47;102251.47;;;10.16;60.90
50250;BME280;36133;42.522;27.456;2023-02-28T11:32:16;102172.78;;;10.11;59.53
50250;BME280;36133;42.522;27.456;2023-02-28T11:34:43;102394.97;;;11.96;59.38
50250;BME280;36133;42.522;27.456;2023-02-28T11:37:15;102407.91;;;11.84;59.66
50250;BME280;36133;42.522;27.456;2023-02-28T11:39:42;102421.56;;;12.36;58.25
50250;BME280;36133;42.522;27.456;2023-02-28T11:45:22;102313.69;;;11.34;58.59
50250;BME280;36133;42.522;27.456;2023-02-28T11:48:22;102423.63;;;12.68;57.16
50250;BME280;36133;42.522;27.456;2023-02-28T11:50:57;102281.41;;;11.33;57.26
50250;BME280;36133;42.522;27.456;2023-02-28T11:53:39;102422.69;;;12.51;57.43
50250;BME280;36133;42.522;27.456;2023-02-28T11:56:13;102390.97;;;12.00;58.46
50250;BME280;36133;42.522;27.456;2023-02-28T12:04:26;102280.47;;;11.24;57.25
50250;BME280;36133;42.522;27.456;2023-02-28T12:18:25;102395.88;;;11.51;58.72
50250;BME280;36133;42.522;27.456;2023-02-28T12:21:27;102441.84;;;12.58;56.92
50250;BME280;36133;42.522;27.456;2023-02-28T12:26:42;102344.34;;;11.53;58.34
50250;BME280;36133;42.522;27.456;2023-02-28T12:29:26;102255.13;;;11.43;57.03
50250;BME280;36133;42.522;27.456;2023-02-28T12:32:13;102444.63;;;11.41;59.89
50250;BME280;36133;42.522;27.456;2023-02-28T12:34:46;102266.88;;;11.52;57.04
50250;BME280;36133;42.522;27.456;2023-02-28T12:40:15;102445.28;;;12.42;56.39
50250;BME280;36133;42.522;27.456;2023-02-28T12:42:45;102429.78;;;11.91;57.52
50250;BME280;36133;42.522;27.456;2023-02-28T12:45:27;102451.41;;;12.70;56.31
50250;BME280;36133;42.522;27.456;2023-02-28T12:48:00;102372.31;;;12.15;56.54
50250;BME280;36133;42.522;27.456;2023-02-28T12:50:29;102400.19;;;11.62;58.36
50250;BME280;36133;42.522;27.456;2023-02-28T13:01:01;102383.47;;;11.31;59.19
50250;BME280;36133;42.522;27.456;2023-02-28T13:09:38;102410.56;;;11.21;59.82
50250;BME280;36133;42.522;27.456;2023-02-28T13:12:15;102314.72;;;10.61;59.13
50250;BME280;36133;42.522;27.456;2023-02-28T13:14:42;102430.22;;;11.68;59.22
50250;BME280;36133;42.522;27.456;2023-02-28T13:19:56;102297.09;;;10.19;61.39
50250;BME280;36133;42.522;27.456;2023-02-28T13:24:57;102368.16;;;11.22;59.80
50250;BME280;36133;42.522;27.456;2023-02-28T13:29:50;102377.06;;;11.32;60.08
50250;BME280;36133;42.522;27.456;2023-02-28T13:32:29;101898.88;;;8.13;60.61
50250;BME280;36133;42.522;27.456;2023-02-28T13:39:52;102358.47;;;10.64;60.75
50250;BME280;36133;42.522;27.456;2023-02-28T13:47:49;102332.69;;;10.79;59.96
50250;BME280;36133;42.522;27.456;2023-02-28T13:50:39;102284.69;;;10.36;60.72
50250;BME280;36133;42.522;27.456;2023-02-28T13:56:02;102404.22;;;10.75;61.22
50250;BME280;36133;42.522;27.456;2023-02-28T13:58:54;102399.56;;;11.05;60.46
50250;BME280;36133;42.522;27.456;2023-02-28T14:01:42;102319.53;;;10.67;60.59
50250;BME280;36133;42.522;27.456;2023-02-28T14:06:59;102294.06;;;10.42;60.74
50250;BME280;36133;42.522;27.456;2023-02-28T14:09:39;102394.97;;;10.78;61.69
50250;BME280;36133;42.522;27.456;2023-02-28T14:15:40;102226.09;;;9.99;60.91
50250;BME280;36133;42.522;27.456;2023-02-28T14:18:29;102350.22;;;10.19;61.61
50250;BME280;36133;42.522;27.456;2023-02-28T14:21:20;102415.66;;;10.60;61.63
50250;BME280;36133;42.522;27.456;2023-02-28T14:24:25;102428.00;;;11.09;60.87
50250;BME280;36133;42.522;27.456;2023-02-28T14:27:13;102395.09;;;11.41;59.29
50250;BME280;36133;42.522;27.456;2023-02-28T14:37:50;102196.88;;;9.29;61.86
50250;BME280;36133;42.522;27.456;2023-02-28T14:40:35;102420.69;;;10.45;62.67
50250;BME280;36133;42.522;27.456;2023-02-28T14:43:06;102363.03;;;10.64;61.54
50250;BME280;36133;42.522;27.456;2023-02-28T14:45:33;102281.94;;;9.89;61.14
50250;BME280;36133;42.522;27.456;2023-02-28T14:48:02;102424.28;;;11.37;60.07
50250;BME280;36133;42.522;27.456;2023-02-28T14:50:35;102379.06;;;10.09;62.27
50250;BME280;36133;42.522;27.456;2023-02-28T14:53:03;102388.94;;;10.66;61.28
50250;BME280;36133;42.522;27.456;2023-02-28T14:55:31;102280.44;;;9.38;62.60
50250;BME280;36133;42.522;27.456;2023-02-28T14:58:02;102306.66;;;9.85;61.84
50250;BME280;36133;42.522;27.456;2023-02-28T15:00:34;102418.75;;;11.02;60.58
50250;BME280;36133;42.522;27.456;2023-02-28T15:03:35;102394.06;;;10.97;60.36
50250;BME280;36133;42.522;27.456;2023-02-28T15:06:04;102424.28;;;11.37;59.93
50250;BME280;36133;42.522;27.456;2023-02-28T15:08:31;102324.25;;;10.08;62.29
50250;BME280;36133;42.522;27.456;2023-02-28T15:11:21;102421.25;;;10.85;61.08
50250;BME280;36133;42.522;27.456;2023-02-28T15:13:54;102114.38;;;8.60;62.08
50250;BME280;36133;42.522;27.456;2023-02-28T15:16:40;102287.84;;;10.12;61.44
50250;BME280;36133;42.522;27.456;2023-02-28T15:19:14;102358.88;;;10.42;61.28
50250;BME280;36133;42.522;27.456;2023-02-28T15:21:43;102421.22;;;10.95;61.22
50250;BME280;36133;42.522;27.456;2023-02-28T15:24:20;102440.81;;;10.60;62.02
50250;BME280;36133;42.522;27.456;2023-02-28T15:26:55;102445.59;;;11.13;60.55